createdAt,value
2022-12-31T00:01:37.125Z,25.88
2022-12-31T00:04:04.897Z,26.35
2022-12-31T00:06:33.551Z,25.73
2022-12-31T00:09:02.692Z,25.45
2022-12-31T00:11:31.272Z,25.75
2022-12-31T00:13:59.013Z,26.08
2022-12-31T00:16:30.969Z,26.92
2022-12-31T00:18:59.888Z,26.95
2022-12-31T00:21:28.740Z,27.13
2022-12-31T00:23:56.382Z,25.88
2022-12-31T00:26:25.893Z,25.98
2022-12-31T00:28:54.457Z,26.90
2022-12-31T00:31:23.709Z,27.77
2022-12-31T00:33:52.080Z,26.80
2022-12-31T00:36:19.807Z,26.98
2022-12-31T00:38:48.511Z,27.25
2022-12-31T00:41:16.890Z,26.77
2022-12-31T00:43:44.653Z,26.90
2022-12-31T00:46:12.667Z,28.42
2022-12-31T00:48:40.651Z,27.43
2022-12-31T00:51:09.751Z,28.65
2022-12-31T00:53:37.427Z,27.25
2022-12-31T00:56:07.270Z,27.45
2022-12-31T00:58:35.813Z,26.90
2022-12-31T01:01:21.046Z,28.42
2022-12-31T01:03:49.760Z,26.98
2022-12-31T01:06:17.837Z,27.10
2022-12-31T01:08:45.562Z,26.95
2022-12-31T01:11:19.504Z,27.08
2022-12-31T01:13:53.552Z,26.67
2022-12-31T01:16:22.608Z,27.42
2022-12-31T01:18:50.546Z,26.58
2022-12-31T01:21:18.797Z,26.67
2022-12-31T01:23:46.461Z,26.67
2022-12-31T01:26:14.955Z,28.17
2022-12-31T01:28:43.094Z,27.30
2022-12-31T01:31:15.267Z,28.00
2022-12-31T01:33:43.387Z,27.38
2022-12-31T01:36:12.530Z,26.63
2022-12-31T01:38:40.521Z,26.23
2022-12-31T01:41:08.832Z,26.17
2022-12-31T01:43:54.455Z,27.75
2022-12-31T01:46:39.404Z,25.13
2022-12-31T01:49:25.131Z,26.17
2022-12-31T01:52:04.206Z,24.63
2022-12-31T01:54:33.983Z,24.80
2022-12-31T01:57:06.090Z,25.27
2022-12-31T01:59:34.832Z,26.05
2022-12-31T02:02:02.856Z,25.58
2022-12-31T02:04:30.705Z,25.40
2022-12-31T02:07:00.766Z,26.50
2022-12-31T02:09:28.813Z,26.23
2022-12-31T02:11:56.479Z,25.83
2022-12-31T02:14:26.454Z,25.60
2022-12-31T02:17:06.477Z,26.10
2022-12-31T02:19:36.937Z,26.27
2022-12-31T02:22:04.705Z,26.33
2022-12-31T02:24:51.190Z,26.17
2022-12-31T02:27:37.347Z,25.70
2022-12-31T02:30:08.561Z,25.77
2022-12-31T02:32:39.346Z,26.33
2022-12-31T02:35:20.021Z,27.02
2022-12-31T02:37:49.444Z,26.67
2022-12-31T02:40:19.709Z,27.87
2022-12-31T02:42:53.278Z,27.00
2022-12-31T02:45:28.177Z,26.23
2022-12-31T02:48:05.392Z,28.25
2022-12-31T02:50:58.164Z,26.75
2022-12-31T02:53:31.004Z,27.85
2022-12-31T02:56:06.196Z,27.55
2022-12-31T02:58:57.312Z,28.05
2022-12-31T03:01:45.721Z,27.05
2022-12-31T03:04:32.495Z,27.02
2022-12-31T03:07:07.957Z,27.17
2022-12-31T03:09:36.274Z,26.25
2022-12-31T03:12:23.715Z,25.77
2022-12-31T03:14:51.462Z,26.48
2022-12-31T03:17:19.128Z,25.88
2022-12-31T03:20:05.516Z,26.48
2022-12-31T03:22:33.760Z,26.42
2022-12-31T03:25:22.661Z,27.33
2022-12-31T03:27:51.268Z,27.05
2022-12-31T03:30:19.495Z,26.90
2022-12-31T03:32:47.866Z,26.75
2022-12-31T03:35:16.291Z,25.88
2022-12-31T03:37:43.991Z,25.95
2022-12-31T03:40:13.466Z,27.98
2022-12-31T03:42:41.352Z,27.10
2022-12-31T03:45:09.659Z,27.33
2022-12-31T03:47:37.323Z,25.83
2022-12-31T03:50:05.448Z,27.38
2022-12-31T03:52:33.179Z,27.23
2022-12-31T03:55:02.213Z,25.63
2022-12-31T03:57:30.157Z,26.25
2022-12-31T03:59:57.829Z,25.73
2022-12-31T04:02:28.840Z,27.23
2022-12-31T04:04:57.192Z,26.60
2022-12-31T04:07:24.840Z,27.10
2022-12-31T04:09:52.517Z,26.90
2022-12-31T04:12:20.264Z,26.88
2022-12-31T04:14:47.891Z,27.03
2022-12-31T04:17:15.669Z,26.42
2022-12-31T04:19:43.379Z,26.17
2022-12-31T04:22:11.976Z,25.60
2022-12-31T04:24:39.703Z,25.88
2022-12-31T04:27:08.155Z,26.67
2022-12-31T04:29:36.584Z,25.92
2022-12-31T04:32:05.201Z,24.90
2022-12-31T04:34:32.955Z,25.97
2022-12-31T04:37:00.803Z,24.35
2022-12-31T04:39:28.758Z,24.90
2022-12-31T04:41:56.429Z,25.58
2022-12-31T04:44:24.131Z,24.85
2022-12-31T04:46:52.523Z,25.88
2022-12-31T04:49:20.302Z,26.52
2022-12-31T04:51:48.296Z,25.33
2022-12-31T04:54:15.897Z,25.38
2022-12-31T04:56:43.667Z,25.50
2022-12-31T04:59:11.819Z,25.63
2022-12-31T05:01:39.734Z,25.05
2022-12-31T05:04:07.511Z,25.15
2022-12-31T05:06:35.439Z,25.42
2022-12-31T05:09:03.074Z,25.52
2022-12-31T05:11:30.706Z,25.33
2022-12-31T05:13:58.341Z,25.77
2022-12-31T05:16:26.071Z,24.98
2022-12-31T05:18:53.727Z,24.92
2022-12-31T05:21:22.319Z,25.77
2022-12-31T05:23:50.007Z,25.40
2022-12-31T05:26:18.006Z,25.63
2022-12-31T05:28:45.625Z,25.27
2022-12-31T05:31:13.435Z,25.23
2022-12-31T05:33:41.056Z,24.65
2022-12-31T05:36:08.797Z,25.52
2022-12-31T05:38:37.571Z,24.85
2022-12-31T05:41:06.379Z,25.45
2022-12-31T05:43:34.018Z,25.30
2022-12-31T05:46:02.607Z,25.55
2022-12-31T05:48:30.755Z,24.05
2022-12-31T05:50:58.426Z,24.23
2022-12-31T05:53:26.155Z,23.58
2022-12-31T05:55:53.849Z,24.00
2022-12-31T05:58:21.523Z,22.85
2022-12-31T06:00:49.260Z,22.50
2022-12-31T06:03:16.960Z,23.37
2022-12-31T06:05:44.670Z,22.55
2022-12-31T06:08:13.053Z,22.05
2022-12-31T06:10:41.024Z,21.42
2022-12-31T06:13:08.958Z,21.33
2022-12-31T06:15:40.552Z,21.45
2022-12-31T06:18:08.407Z,21.13
2022-12-31T06:20:39.122Z,21.20
2022-12-31T06:23:06.950Z,21.80
2022-12-31T06:25:37.116Z,21.92
2022-12-31T06:28:05.546Z,21.55
2022-12-31T06:30:33.190Z,21.17
2022-12-31T06:33:00.843Z,20.67
2022-12-31T06:35:28.487Z,20.30
2022-12-31T06:37:56.046Z,20.83
2022-12-31T06:40:23.767Z,20.55
2022-12-31T06:42:57.754Z,21.33
2022-12-31T06:45:28.278Z,20.05
2022-12-31T06:47:55.961Z,20.45
2022-12-31T06:50:23.588Z,20.13
2022-12-31T06:52:51.201Z,19.95
2022-12-31T06:55:19.057Z,20.67
2022-12-31T06:57:46.798Z,20.67
2022-12-31T07:00:14.772Z,20.33
2022-12-31T07:03:01.698Z,20.40
2022-12-31T07:05:32.249Z,20.45
2022-12-31T07:07:59.895Z,20.98
2022-12-31T07:10:46.455Z,20.30
2022-12-31T07:13:23.851Z,20.05
2022-12-31T07:16:10.449Z,19.73
2022-12-31T07:18:40.897Z,19.83
2022-12-31T07:21:10.792Z,19.47
2022-12-31T07:23:38.582Z,19.10
2022-12-31T07:26:24.364Z,20.40
2022-12-31T07:28:59.595Z,20.10
2022-12-31T07:31:53.666Z,21.08
2022-12-31T07:34:30.616Z,20.88
2022-12-31T07:37:08.762Z,19.80
2022-12-31T07:39:41.511Z,20.73
2022-12-31T07:42:14.983Z,20.13
2022-12-31T07:44:42.658Z,20.75
2022-12-31T07:47:22.719Z,20.98
2022-12-31T07:49:50.628Z,20.30
2022-12-31T07:52:18.567Z,22.05
2022-12-31T07:54:46.410Z,21.17
2022-12-31T07:57:15.149Z,21.83
2022-12-31T07:59:45.942Z,22.30
2022-12-31T08:02:34.122Z,21.33
2022-12-31T08:05:40.278Z,22.58
2022-12-31T08:08:28.230Z,24.67
2022-12-31T08:11:07.455Z,23.00
2022-12-31T08:13:35.221Z,23.13
2022-12-31T08:16:03.312Z,23.77
2022-12-31T08:18:31.069Z,24.73
2022-12-31T08:21:10.151Z,23.52
2022-12-31T08:23:48.208Z,24.73
2022-12-31T08:26:19.510Z,24.98
2022-12-31T08:28:53.717Z,24.88
2022-12-31T08:31:23.582Z,25.13
2022-12-31T08:34:06.048Z,24.67
2022-12-31T08:36:50.234Z,23.15
2022-12-31T08:39:22.850Z,23.92
2022-12-31T08:41:52.025Z,23.67
2022-12-31T08:44:19.639Z,22.17
2022-12-31T08:47:06.062Z,23.57
2022-12-31T08:49:35.270Z,22.90
2022-12-31T08:52:03.772Z,23.60
2022-12-31T08:54:31.647Z,24.07
2022-12-31T08:56:59.177Z,23.67
2022-12-31T08:59:45.368Z,23.08
2022-12-31T09:02:15.904Z,25.05
2022-12-31T09:04:43.543Z,24.00
2022-12-31T09:07:12.032Z,22.55
2022-12-31T09:09:57.864Z,24.13
2022-12-31T09:12:38.818Z,24.67
2022-12-31T09:15:35.924Z,24.73
2022-12-31T09:18:03.727Z,24.17
2022-12-31T09:20:42.899Z,24.77
2022-12-31T09:23:12.371Z,23.67
2022-12-31T09:25:44.919Z,24.03
2022-12-31T09:28:32.877Z,24.33
2022-12-31T09:31:14.717Z,23.85
2022-12-31T09:33:52.883Z,23.57
2022-12-31T09:36:30.573Z,22.60
2022-12-31T09:39:36.526Z,23.73
2022-12-31T09:42:22.475Z,23.92
2022-12-31T09:45:09.910Z,24.63
2022-12-31T09:47:47.511Z,23.50
2022-12-31T09:50:16.137Z,23.58
2022-12-31T09:52:46.602Z,24.02
2022-12-31T09:55:24.857Z,23.45
2022-12-31T09:58:02.357Z,24.48
2022-12-31T10:00:38.903Z,24.75
2022-12-31T10:03:30.767Z,25.00
2022-12-31T10:06:01.281Z,25.60
2022-12-31T10:08:44.223Z,26.40
2022-12-31T10:11:17.633Z,24.52
2022-12-31T10:14:03.729Z,25.90
2022-12-31T10:16:41.547Z,25.58
2022-12-31T10:19:12.018Z,25.48
2022-12-31T10:21:48.432Z,25.77
2022-12-31T10:24:34.448Z,26.30
2022-12-31T10:27:16.443Z,24.75
2022-12-31T10:30:10.325Z,26.83
2022-12-31T10:32:46.081Z,24.63
2022-12-31T10:35:24.437Z,25.02
2022-12-31T10:38:16.260Z,26.58
2022-12-31T10:40:50.014Z,25.67
2022-12-31T10:43:34.606Z,26.80
2022-12-31T10:46:23.262Z,26.33
2022-12-31T10:48:54.515Z,26.02
2022-12-31T10:51:37.511Z,26.53
2022-12-31T10:54:23.735Z,27.30
2022-12-31T10:57:09.438Z,27.98
2022-12-31T10:59:37.174Z,26.73
2022-12-31T11:02:23.497Z,27.00
2022-12-31T11:05:03.906Z,25.63
2022-12-31T11:07:54.753Z,25.75
2022-12-31T11:10:25.177Z,25.17
2022-12-31T11:12:52.822Z,24.40
2022-12-31T11:15:23.548Z,23.70
2022-12-31T11:18:00.315Z,23.17
2022-12-31T11:20:27.982Z,22.80
2022-12-31T11:23:01.724Z,22.35
2022-12-31T11:25:30.389Z,22.60
2022-12-31T11:27:58.000Z,22.10
2022-12-31T11:30:48.912Z,21.45
2022-12-31T11:33:35.371Z,20.70
2022-12-31T11:36:06.242Z,20.90
2022-12-31T11:38:38.702Z,20.45
2022-12-31T11:41:08.456Z,19.65
2022-12-31T11:43:44.653Z,21.08
2022-12-31T11:46:15.065Z,20.65
2022-12-31T11:48:53.618Z,20.70
2022-12-31T11:51:33.294Z,20.92
2022-12-31T11:54:01.351Z,19.85
2022-12-31T11:56:38.325Z,21.45
2022-12-31T11:59:14.381Z,20.85
2022-12-31T12:01:53.200Z,20.00
2022-12-31T12:04:20.888Z,22.05
2022-12-31T12:06:48.921Z,21.52
2022-12-31T12:09:21.403Z,24.73
2022-12-31T12:11:58.581Z,25.15
2022-12-31T12:14:32.072Z,24.35
2022-12-31T12:17:04.640Z,25.05
2022-12-31T12:19:34.388Z,27.15
2022-12-31T12:22:20.719Z,28.13
2022-12-31T12:24:58.962Z,26.70
2022-12-31T12:27:30.508Z,26.00
2022-12-31T12:29:58.187Z,27.05
2022-12-31T12:32:27.351Z,27.83
2022-12-31T12:34:56.441Z,28.27
2022-12-31T12:37:35.335Z,29.48
2022-12-31T12:40:04.769Z,31.15
2022-12-31T12:42:32.551Z,30.55
2022-12-31T12:45:14.920Z,30.40
2022-12-31T12:47:43.808Z,28.98
2022-12-31T12:50:16.636Z,27.63
2022-12-31T12:52:57.800Z,29.02
2022-12-31T12:55:53.846Z,28.25
2022-12-31T12:58:24.565Z,27.53
2022-12-31T13:01:00.097Z,29.27
2022-12-31T13:03:33.710Z,28.27
2022-12-31T13:06:19.863Z,27.38
2022-12-31T13:09:11.143Z,29.67
2022-12-31T13:11:44.647Z,29.42
2022-12-31T13:14:30.856Z,27.10
2022-12-31T13:17:04.568Z,26.00
2022-12-31T13:19:34.976Z,25.40
2022-12-31T13:22:25.721Z,24.50
2022-12-31T13:24:58.016Z,24.90
2022-12-31T13:27:28.554Z,24.30
2022-12-31T13:29:59.738Z,23.53
2022-12-31T13:32:46.014Z,22.83
2022-12-31T13:35:26.054Z,22.77
2022-12-31T13:38:05.765Z,22.98
2022-12-31T13:40:43.338Z,23.60
2022-12-31T13:43:21.359Z,22.95
2022-12-31T13:45:59.856Z,23.73
2022-12-31T13:48:33.194Z,23.38
2022-12-31T13:51:20.170Z,22.20
2022-12-31T13:54:08.044Z,21.90
2022-12-31T13:56:37.757Z,23.35
2022-12-31T13:59:21.488Z,22.20
2022-12-31T14:01:49.254Z,23.17
2022-12-31T14:04:30.765Z,22.27
2022-12-31T14:07:11.258Z,21.90
2022-12-31T14:09:39.121Z,22.35
2022-12-31T14:12:18.771Z,21.52
2022-12-31T14:15:01.717Z,22.40
2022-12-31T14:17:36.711Z,23.70
2022-12-31T14:20:15.038Z,25.40
2022-12-31T14:22:45.825Z,24.42
2022-12-31T14:25:24.632Z,23.63
2022-12-31T14:27:54.264Z,24.88
2022-12-31T14:30:23.416Z,24.00
2022-12-31T14:33:12.787Z,24.73
2022-12-31T14:35:55.780Z,24.85
2022-12-31T14:38:42.213Z,23.95
2022-12-31T14:41:14.923Z,24.75
2022-12-31T14:43:51.236Z,24.38
2022-12-31T14:46:18.855Z,25.27
2022-12-31T14:48:56.711Z,24.52
2022-12-31T14:51:28.526Z,24.00
2022-12-31T14:53:56.989Z,22.85
2022-12-31T14:56:28.943Z,24.02
2022-12-31T14:59:00.845Z,24.15
2022-12-31T15:01:29.236Z,23.65
2022-12-31T15:03:58.252Z,23.52
2022-12-31T15:06:25.931Z,23.50
2022-12-31T15:09:12.334Z,24.33
2022-12-31T15:11:39.953Z,24.67
2022-12-31T15:14:25.704Z,23.13
2022-12-31T15:16:53.419Z,23.50
2022-12-31T15:19:21.021Z,23.38
2022-12-31T15:21:58.906Z,23.00
2022-12-31T15:24:27.677Z,23.23
2022-12-31T15:26:57.419Z,23.30
2022-12-31T15:29:25.028Z,23.42
2022-12-31T15:31:52.748Z,23.93
2022-12-31T15:34:42.744Z,23.92
2022-12-31T15:37:33.370Z,23.50
2022-12-31T15:40:29.095Z,24.53
2022-12-31T15:43:03.734Z,24.58
2022-12-31T15:45:38.855Z,25.98
2022-12-31T15:48:08.951Z,24.70
2022-12-31T15:50:37.598Z,26.33
2022-12-31T15:53:06.199Z,25.80
2022-12-31T15:55:41.225Z,25.67
2022-12-31T15:58:13.145Z,26.13
2022-12-31T16:01:04.137Z,25.42
2022-12-31T16:03:32.521Z,27.02
2022-12-31T16:06:02.399Z,26.25
2022-12-31T16:08:32.120Z,25.92
2022-12-31T16:11:00.112Z,27.33
2022-12-31T16:13:28.614Z,27.85
2022-12-31T16:16:19.455Z,27.33
2022-12-31T16:18:50.115Z,28.00
2022-12-31T16:21:23.595Z,27.35
2022-12-31T16:23:52.369Z,27.65
2022-12-31T16:26:20.178Z,28.93
2022-12-31T16:28:48.792Z,28.33
2022-12-31T16:31:17.880Z,29.98
2022-12-31T16:33:45.962Z,29.08
2022-12-31T16:36:21.538Z,28.95
2022-12-31T16:38:49.936Z,28.95
2022-12-31T16:41:17.643Z,30.05
2022-12-31T16:43:46.055Z,30.88
2022-12-31T16:46:31.780Z,30.30
2022-12-31T16:49:01.394Z,30.67
2022-12-31T16:51:33.080Z,28.85
2022-12-31T16:54:02.183Z,30.25
2022-12-31T16:56:34.804Z,29.52
2022-12-31T16:59:08.420Z,30.35
2022-12-31T17:01:37.797Z,30.48
2022-12-31T17:04:07.162Z,30.17
2022-12-31T17:06:34.832Z,29.83
2022-12-31T17:09:02.793Z,30.30
2022-12-31T17:11:56.519Z,30.70
2022-12-31T17:14:26.127Z,29.90
2022-12-31T17:17:01.461Z,29.60
2022-12-31T17:19:45.050Z,31.23
2022-12-31T17:22:32.968Z,29.88
2022-12-31T17:25:08.078Z,30.83
2022-12-31T17:27:37.043Z,30.83
2022-12-31T17:30:43.442Z,30.90
2022-12-31T17:33:13.841Z,30.83
2022-12-31T17:35:42.529Z,32.57
2022-12-31T17:38:19.133Z,32.17
2022-12-31T17:40:51.900Z,35.38
2022-12-31T17:43:21.174Z,36.10
2022-12-31T17:45:51.056Z,39.30
2022-12-31T17:48:19.944Z,37.63
2022-12-31T17:50:48.402Z,36.17
2022-12-31T17:53:16.260Z,37.08
2022-12-31T17:55:45.778Z,37.50
2022-12-31T17:58:20.374Z,37.67
2022-12-31T18:00:50.178Z,36.45
2022-12-31T18:03:17.836Z,36.38
2022-12-31T18:05:45.462Z,38.13
2022-12-31T18:08:13.129Z,38.13
2022-12-31T18:10:42.684Z,39.73
2022-12-31T18:13:21.279Z,37.45
2022-12-31T18:15:48.941Z,38.53
2022-12-31T18:18:25.567Z,38.40
2022-12-31T18:20:55.484Z,39.78
2022-12-31T18:23:31.487Z,40.78
2022-12-31T18:25:59.099Z,41.03
2022-12-31T18:28:26.805Z,39.60
2022-12-31T18:30:54.474Z,41.15
2022-12-31T18:33:23.818Z,40.63
2022-12-31T18:36:09.272Z,40.60
2022-12-31T18:38:38.179Z,41.53
2022-12-31T18:41:06.234Z,38.67
2022-12-31T18:43:33.892Z,38.67
2022-12-31T18:46:01.551Z,39.45
2022-12-31T18:48:29.405Z,38.78
2022-12-31T18:50:57.341Z,36.72
2022-12-31T18:53:25.077Z,39.15
2022-12-31T18:55:57.068Z,39.77
2022-12-31T18:58:25.202Z,40.38
2022-12-31T19:00:53.015Z,39.85
2022-12-31T19:03:22.216Z,39.20
2022-12-31T19:05:51.124Z,38.83
2022-12-31T19:08:19.622Z,38.80
2022-12-31T19:10:47.678Z,38.05
2022-12-31T19:13:16.309Z,37.73
2022-12-31T19:15:47.285Z,38.90
2022-12-31T19:18:15.007Z,37.67
2022-12-31T19:20:42.913Z,37.17
2022-12-31T19:23:14.783Z,37.45
2022-12-31T19:25:42.543Z,37.00
2022-12-31T19:28:16.228Z,37.00
2022-12-31T19:30:43.981Z,36.10
2022-12-31T19:33:11.754Z,37.05
2022-12-31T19:35:39.928Z,36.75
2022-12-31T19:38:12.798Z,36.05
2022-12-31T19:40:40.889Z,37.45
2022-12-31T19:43:12.247Z,36.38
2022-12-31T19:45:40.951Z,34.72
2022-12-31T19:48:12.880Z,36.60
2022-12-31T19:50:44.633Z,35.85
2022-12-31T19:53:13.571Z,35.35
2022-12-31T19:55:41.574Z,35.95
2022-12-31T19:58:11.240Z,34.67
2022-12-31T20:00:39.525Z,36.65
2022-12-31T20:03:07.252Z,35.15
2022-12-31T20:05:35.067Z,35.40
2022-12-31T20:08:02.775Z,34.60
2022-12-31T20:10:30.509Z,35.25
2022-12-31T20:12:58.159Z,35.63
2022-12-31T20:15:25.940Z,35.70
2022-12-31T20:17:53.692Z,36.13
2022-12-31T20:20:21.339Z,35.72
2022-12-31T20:22:48.979Z,34.70
2022-12-31T20:25:16.663Z,36.67
2022-12-31T20:27:44.275Z,36.75
2022-12-31T20:30:12.746Z,38.25
2022-12-31T20:32:40.456Z,37.83
2022-12-31T20:35:08.242Z,39.35
2022-12-31T20:37:35.933Z,39.75
2022-12-31T20:40:03.689Z,39.30
2022-12-31T20:42:31.413Z,38.22
2022-12-31T20:44:59.044Z,38.58
2022-12-31T20:47:26.682Z,38.77
2022-12-31T20:50:11.705Z,38.50
2022-12-31T20:52:39.967Z,38.70
2022-12-31T20:55:07.825Z,38.90
2022-12-31T20:57:35.436Z,38.13
2022-12-31T21:00:04.148Z,38.60
2022-12-31T21:02:41.663Z,38.83
2022-12-31T21:05:11.462Z,38.22
2022-12-31T21:07:39.393Z,38.15
2022-12-31T21:10:07.230Z,37.25
2022-12-31T21:12:43.996Z,37.40
2022-12-31T21:15:12.524Z,38.63
2022-12-31T21:17:40.456Z,35.78
2022-12-31T21:20:08.491Z,37.00
2022-12-31T21:22:36.081Z,35.10
2022-12-31T21:25:06.122Z,36.65
2022-12-31T21:27:33.776Z,37.53
2022-12-31T21:30:18.470Z,34.55
2022-12-31T21:32:46.887Z,36.67
2022-12-31T21:35:42.378Z,36.92
2022-12-31T21:38:02.683Z,38.67
2022-12-31T21:40:31.037Z,39.63
2022-12-31T21:42:58.838Z,38.65
2022-12-31T21:45:26.626Z,37.60
2022-12-31T21:48:12.844Z,38.33
2022-12-31T21:50:40.501Z,38.67
2022-12-31T21:53:08.150Z,37.70
2022-12-31T21:55:57.022Z,36.92
2022-12-31T21:58:26.557Z,37.33
2022-12-31T22:01:13.699Z,37.20
2022-12-31T22:03:41.532Z,37.63
2022-12-31T22:06:14.108Z,38.05
2022-12-31T22:08:42.583Z,38.28
2022-12-31T22:11:10.787Z,38.38
2022-12-31T22:13:38.449Z,37.80
2022-12-31T22:16:06.398Z,37.58
2022-12-31T22:18:39.143Z,38.28
2022-12-31T22:21:18.446Z,38.80
2022-12-31T22:23:51.889Z,36.88
2022-12-31T22:26:21.168Z,38.50
2022-12-31T22:28:48.878Z,39.97
2022-12-31T22:31:17.989Z,38.10
2022-12-31T22:33:45.953Z,37.75
2022-12-31T22:36:15.659Z,39.53
2022-12-31T22:38:43.476Z,39.22
2022-12-31T22:41:12.151Z,39.83
2022-12-31T22:43:41.451Z,40.47
2022-12-31T22:46:10.265Z,40.67
2022-12-31T22:48:38.394Z,41.25
2022-12-31T22:51:06.737Z,40.63
2022-12-31T22:53:34.528Z,41.15
2022-12-31T22:56:02.268Z,41.17
2022-12-31T22:58:29.903Z,40.90
2022-12-31T23:00:57.632Z,41.17
2022-12-31T23:03:25.523Z,41.80
2022-12-31T23:05:53.679Z,40.33
2022-12-31T23:08:23.751Z,41.60
2022-12-31T23:11:05.407Z,42.83
2022-12-31T23:13:56.053Z,54.20
2022-12-31T23:16:43.878Z,60.15
2022-12-31T23:19:30.551Z,71.70
2022-12-31T23:22:17.259Z,81.03
2022-12-31T23:24:44.980Z,91.40
2022-12-31T23:27:12.691Z,95.45
2022-12-31T23:29:46.669Z,102.38
2022-12-31T23:32:16.149Z,112.05
2022-12-31T23:34:44.894Z,114.78
2022-12-31T23:37:13.428Z,112.35
2022-12-31T23:39:41.518Z,107.30
2022-12-31T23:42:09.644Z,104.57
2022-12-31T23:44:37.445Z,102.82
2022-12-31T23:47:05.206Z,98.28
2022-12-31T23:49:32.912Z,94.75
2022-12-31T23:52:00.562Z,91.32
2022-12-31T23:54:28.800Z,86.35
2022-12-31T23:56:56.481Z,85.28
2022-12-31T23:59:24.153Z,81.95
